createdAt,value
2023-02-26T00:01:37.807Z,6.28
2023-02-26T00:04:06.531Z,6.40
2023-02-26T00:06:36.325Z,7.45
2023-02-26T00:09:05.701Z,4.63
2023-02-26T00:11:34.156Z,4.45
2023-02-26T00:14:01.438Z,7.45
2023-02-26T00:16:34.848Z,7.50
2023-02-26T00:19:05.024Z,5.97
2023-02-26T00:21:32.806Z,5.60
2023-02-26T00:24:02.988Z,4.90
2023-02-26T00:26:31.920Z,5.70
2023-02-26T00:29:00.187Z,4.40
2023-02-26T00:31:28.107Z,5.78
2023-02-26T00:33:56.939Z,5.50
2023-02-26T00:36:40.901Z,5.15
2023-02-26T00:39:22.864Z,5.00
2023-02-26T00:41:50.242Z,5.18
2023-02-26T00:44:17.656Z,4.97
2023-02-26T00:47:00.917Z,6.68
2023-02-26T00:49:52.079Z,6.57
2023-02-26T00:52:31.509Z,6.20
2023-02-26T00:54:58.535Z,5.43
2023-02-26T00:57:25.537Z,6.03
2023-02-26T00:59:52.571Z,6.13
2023-02-26T01:02:19.719Z,6.65
2023-02-26T01:04:48.564Z,7.22
2023-02-26T01:07:18.046Z,6.93
2023-02-26T01:09:45.360Z,8.63
2023-02-26T01:12:13.528Z,7.53
2023-02-26T01:14:41.343Z,5.63
2023-02-26T01:17:33.995Z,5.38
2023-02-26T01:20:20.444Z,8.43
2023-02-26T01:23:19.736Z,6.05
2023-02-26T01:25:51.329Z,7.35
2023-02-26T01:28:18.929Z,6.95
2023-02-26T01:30:46.489Z,7.20
2023-02-26T01:33:26.052Z,7.72
2023-02-26T01:36:21.872Z,6.22
2023-02-26T01:39:02.889Z,5.90
2023-02-26T01:41:48.741Z,6.45
2023-02-26T01:44:32.805Z,8.77
2023-02-26T01:47:14.970Z,7.32
2023-02-26T01:49:42.299Z,7.13
2023-02-26T01:52:46.798Z,5.75
2023-02-26T01:55:16.527Z,4.93
2023-02-26T01:57:44.359Z,6.63
2023-02-26T02:00:12.505Z,4.75
2023-02-26T02:02:39.978Z,5.18
2023-02-26T02:05:25.084Z,5.40
2023-02-26T02:07:52.111Z,4.70
2023-02-26T02:10:19.523Z,3.58
2023-02-26T02:13:18.601Z,3.90
2023-02-26T02:16:29.499Z,4.55
2023-02-26T02:19:44.385Z,3.42
2023-02-26T02:22:32.930Z,2.85
2023-02-26T02:25:37.409Z,2.58
2023-02-26T02:28:04.485Z,2.63
2023-02-26T02:30:54.532Z,2.13
2023-02-26T02:33:26.263Z,2.25
2023-02-26T02:36:10.424Z,4.18
2023-02-26T02:38:48.803Z,3.47
2023-02-26T02:41:22.384Z,3.00
2023-02-26T02:43:51.277Z,3.97
2023-02-26T02:46:27.362Z,3.20
2023-02-26T02:48:57.936Z,3.92
2023-02-26T02:51:27.990Z,2.60
2023-02-26T02:54:12.242Z,4.30
2023-02-26T02:56:46.151Z,3.85
2023-02-26T02:59:32.314Z,2.47
2023-02-26T03:02:24.048Z,1.70
2023-02-26T03:04:51.679Z,3.88
2023-02-26T03:07:18.794Z,2.38
2023-02-26T03:09:46.500Z,2.28
2023-02-26T03:12:13.710Z,2.15
2023-02-26T03:14:41.827Z,3.15
2023-02-26T03:17:27.575Z,2.80
2023-02-26T03:20:05.674Z,2.20
2023-02-26T03:22:56.378Z,2.50
2023-02-26T03:25:41.429Z,3.95
2023-02-26T03:28:25.707Z,2.83
2023-02-26T03:31:11.924Z,5.32
2023-02-26T03:34:03.197Z,4.07
2023-02-26T03:36:59.383Z,4.13
2023-02-26T03:39:39.475Z,3.05
2023-02-26T03:42:10.309Z,4.22
2023-02-26T03:44:47.278Z,3.75
2023-02-26T03:47:16.113Z,5.97
2023-02-26T03:49:48.540Z,5.80
2023-02-26T03:52:16.957Z,6.40
2023-02-26T03:55:11.464Z,7.68
2023-02-26T03:57:39.034Z,6.00
2023-02-26T04:00:07.522Z,7.32
2023-02-26T04:02:49.587Z,7.82
2023-02-26T04:05:22.771Z,7.18
2023-02-26T04:07:50.326Z,6.60
2023-02-26T04:10:21.897Z,7.28
2023-02-26T04:12:48.978Z,7.35
2023-02-26T04:15:16.112Z,12.68
2023-02-26T04:17:43.246Z,7.95
2023-02-26T04:20:11.092Z,8.10
2023-02-26T04:22:38.857Z,8.85
2023-02-26T04:25:06.501Z,5.93
2023-02-26T04:27:33.571Z,7.82
2023-02-26T04:30:00.677Z,5.10
2023-02-26T04:32:27.818Z,4.20
2023-02-26T04:34:54.957Z,4.25
2023-02-26T04:37:22.092Z,3.20
2023-02-26T04:39:49.189Z,3.05
2023-02-26T04:42:16.345Z,3.28
2023-02-26T04:44:43.434Z,3.78
2023-02-26T04:47:10.622Z,5.32
2023-02-26T04:49:37.736Z,4.50
2023-02-26T04:52:04.819Z,2.38
2023-02-26T04:54:32.080Z,2.13
2023-02-26T04:56:59.024Z,2.33
2023-02-26T04:59:26.106Z,1.95
2023-02-26T05:01:53.181Z,2.60
2023-02-26T05:04:20.301Z,1.80
2023-02-26T05:06:47.389Z,2.50
2023-02-26T05:09:14.533Z,2.20
2023-02-26T05:11:41.578Z,2.90
2023-02-26T05:14:08.716Z,1.85
2023-02-26T05:16:35.900Z,2.88
2023-02-26T05:19:02.973Z,2.88
2023-02-26T05:21:29.934Z,1.90
2023-02-26T05:23:57.113Z,2.08
2023-02-26T05:26:24.491Z,2.65
2023-02-26T05:28:52.151Z,2.60
2023-02-26T05:31:19.744Z,1.33
2023-02-26T05:33:46.833Z,2.00
2023-02-26T05:36:14.170Z,2.47
2023-02-26T05:38:41.319Z,2.15
2023-02-26T05:41:08.421Z,2.13
2023-02-26T05:43:36.149Z,2.45
2023-02-26T05:46:03.524Z,1.75
2023-02-26T05:48:30.548Z,2.95
2023-02-26T05:50:57.687Z,1.75
2023-02-26T05:53:24.875Z,3.15
2023-02-26T05:55:53.914Z,2.50
2023-02-26T05:58:20.997Z,2.70
2023-02-26T06:00:48.116Z,3.47
2023-02-26T06:03:15.339Z,2.90
2023-02-26T06:05:42.352Z,2.50
2023-02-26T06:08:09.617Z,2.90
2023-02-26T06:10:36.733Z,3.85
2023-02-26T06:13:04.218Z,3.33
2023-02-26T06:15:31.222Z,4.35
2023-02-26T06:17:58.441Z,4.00
2023-02-26T06:20:25.495Z,4.00
2023-02-26T06:22:52.513Z,3.83
2023-02-26T06:25:20.537Z,4.20
2023-02-26T06:27:47.651Z,3.67
2023-02-26T06:30:14.948Z,4.57
2023-02-26T06:32:42.168Z,5.28
2023-02-26T06:35:09.629Z,4.30
2023-02-26T06:37:36.927Z,4.68
2023-02-26T06:40:04.826Z,4.15
2023-02-26T06:42:31.917Z,5.53
2023-02-26T06:44:59.239Z,6.22
2023-02-26T06:47:27.092Z,8.68
2023-02-26T06:49:54.186Z,8.45
2023-02-26T06:52:21.241Z,7.95
2023-02-26T06:54:48.427Z,8.45
2023-02-26T06:57:15.517Z,9.38
2023-02-26T06:59:42.505Z,7.63
2023-02-26T07:02:17.820Z,7.10
2023-02-26T07:04:45.136Z,8.45
2023-02-26T07:07:12.767Z,6.35
2023-02-26T07:09:39.862Z,10.57
2023-02-26T07:12:07.964Z,11.85
2023-02-26T07:14:35.982Z,12.80
2023-02-26T07:17:03.920Z,11.27
2023-02-26T07:19:31.109Z,16.05
2023-02-26T07:21:58.225Z,16.52
2023-02-26T07:24:25.779Z,13.38
2023-02-26T07:26:53.451Z,24.05
2023-02-26T07:29:20.702Z,16.65
2023-02-26T07:31:48.059Z,23.05
2023-02-26T07:34:15.275Z,24.35
2023-02-26T07:36:42.260Z,24.02
2023-02-26T07:39:09.413Z,23.00
2023-02-26T07:41:36.400Z,26.90
2023-02-26T07:44:03.776Z,29.20
2023-02-26T07:46:31.011Z,28.02
2023-02-26T07:48:58.324Z,27.77
2023-02-26T07:51:26.019Z,29.08
2023-02-26T07:53:53.216Z,24.58
2023-02-26T07:56:20.355Z,25.33
2023-02-26T07:58:47.450Z,25.27
2023-02-26T08:01:14.649Z,24.77
2023-02-26T08:03:41.724Z,23.60
2023-02-26T08:06:08.930Z,30.42
2023-02-26T08:08:36.108Z,21.95
2023-02-26T08:11:03.443Z,25.20
2023-02-26T08:13:30.460Z,23.00
2023-02-26T08:15:57.669Z,19.48
2023-02-26T08:18:24.995Z,22.42
2023-02-26T08:20:52.784Z,21.50
2023-02-26T08:23:20.141Z,28.17
2023-02-26T08:25:47.352Z,24.98
2023-02-26T08:28:14.526Z,27.60
2023-02-26T08:30:41.870Z,26.20
2023-02-26T08:33:08.998Z,27.38
2023-02-26T08:35:36.258Z,23.13
2023-02-26T08:38:03.459Z,25.52
2023-02-26T08:40:30.528Z,23.08
2023-02-26T08:42:59.917Z,24.65
2023-02-26T08:45:27.638Z,20.13
2023-02-26T08:47:57.287Z,17.48
2023-02-26T08:50:25.817Z,19.08
2023-02-26T08:52:55.135Z,16.20
2023-02-26T08:55:23.122Z,16.38
2023-02-26T08:57:50.408Z,13.70
2023-02-26T09:00:18.810Z,10.43
2023-02-26T09:02:46.805Z,10.10
2023-02-26T09:05:18.910Z,10.63
2023-02-26T09:07:50.105Z,10.00
2023-02-26T09:10:20.256Z,9.23
2023-02-26T09:12:51.745Z,8.70
2023-02-26T09:15:24.294Z,14.45
2023-02-26T09:17:54.361Z,38.58
2023-02-26T09:20:26.623Z,36.08
2023-02-26T09:22:57.440Z,6.57
2023-02-26T09:25:29.059Z,6.47
2023-02-26T09:27:59.781Z,8.77
2023-02-26T09:30:32.261Z,8.73
2023-02-26T09:32:59.684Z,16.43
2023-02-26T09:35:26.760Z,14.25
2023-02-26T09:37:53.908Z,13.45
2023-02-26T09:40:29.179Z,17.55
2023-02-26T09:43:14.577Z,20.90
2023-02-26T09:45:44.654Z,25.58
2023-02-26T09:48:17.803Z,19.77
2023-02-26T09:50:50.006Z,12.02
2023-02-26T09:53:34.363Z,7.70
2023-02-26T09:56:25.770Z,10.45
2023-02-26T09:58:54.236Z,17.50
2023-02-26T10:01:32.191Z,24.42
2023-02-26T10:04:27.300Z,25.52
2023-02-26T10:07:03.178Z,30.58
2023-02-26T10:09:42.501Z,31.40
2023-02-26T10:12:32.709Z,34.60
2023-02-26T10:15:02.407Z,35.47
2023-02-26T10:17:41.008Z,38.05
2023-02-26T10:20:15.225Z,42.42
2023-02-26T10:23:19.781Z,43.90
2023-02-26T10:25:53.007Z,47.65
2023-02-26T10:31:23.216Z,53.70
2023-02-26T10:34:05.725Z,59.15
2023-02-26T10:36:59.698Z,121.43
2023-02-26T10:39:59.444Z,52.80
2023-02-26T10:42:36.078Z,57.47
2023-02-26T10:45:29.277Z,65.78
2023-02-26T10:48:26.117Z,67.32
2023-02-26T10:51:02.509Z,53.13
2023-02-26T10:53:38.659Z,51.03
2023-02-26T10:56:41.322Z,51.92
2023-02-26T10:59:13.422Z,43.30
2023-02-26T11:01:44.300Z,41.70
2023-02-26T11:04:18.408Z,36.17
2023-02-26T11:06:51.366Z,39.15
2023-02-26T11:09:24.584Z,31.75
2023-02-26T11:14:21.884Z,41.92
2023-02-26T11:17:02.029Z,40.00
2023-02-26T11:19:48.761Z,36.75
2023-02-26T11:22:16.768Z,33.05
2023-02-26T11:24:48.800Z,36.47
2023-02-26T11:27:21.778Z,25.00
2023-02-26T11:29:55.884Z,26.52
2023-02-26T11:32:34.728Z,24.52
2023-02-26T11:35:01.886Z,26.45
2023-02-26T11:37:36.413Z,27.63
2023-02-26T11:40:17.674Z,29.27
2023-02-26T11:42:52.968Z,29.25
2023-02-26T11:45:21.585Z,26.92
2023-02-26T11:48:04.370Z,26.10
2023-02-26T11:50:36.733Z,33.83
2023-02-26T11:53:16.390Z,37.03
2023-02-26T11:55:50.389Z,36.40
2023-02-26T11:58:20.796Z,37.50
2023-02-26T12:00:49.922Z,34.28
2023-02-26T12:03:22.841Z,39.38
2023-02-26T12:05:53.348Z,39.28
2023-02-26T12:08:40.444Z,38.10
2023-02-26T12:11:15.887Z,43.05
2023-02-26T12:14:19.366Z,47.05
2023-02-26T12:16:56.344Z,47.55
2023-02-26T12:19:57.078Z,58.22
2023-02-26T12:22:43.214Z,54.58
2023-02-26T12:25:23.461Z,52.92
2023-02-26T12:28:10.169Z,51.60
2023-02-26T12:31:01.487Z,53.42
2023-02-26T12:34:06.381Z,53.60
2023-02-26T12:36:49.879Z,52.03
2023-02-26T12:39:44.561Z,52.58
2023-02-26T12:42:58.282Z,52.63
2023-02-26T12:45:51.215Z,59.72
2023-02-26T12:48:37.078Z,58.05
2023-02-26T12:51:12.935Z,65.10
2023-02-26T12:53:39.946Z,62.20
2023-02-26T12:56:18.927Z,57.35
2023-02-26T12:58:54.736Z,50.22
2023-02-26T13:01:49.806Z,49.88
2023-02-26T13:04:42.102Z,44.30
2023-02-26T13:07:49.996Z,38.03
2023-02-26T13:10:43.883Z,41.72
2023-02-26T13:16:10.418Z,39.78
2023-02-26T13:19:20.638Z,39.42
2023-02-26T13:22:16.331Z,36.53
2023-02-26T13:25:35.630Z,34.45
2023-02-26T13:28:11.858Z,34.53
2023-02-26T13:30:45.987Z,38.63
2023-02-26T13:33:23.866Z,39.72
2023-02-26T13:35:53.553Z,38.83
2023-02-26T13:38:32.344Z,41.38
2023-02-26T13:40:59.282Z,47.42
2023-02-26T13:43:54.838Z,44.63
2023-02-26T13:46:34.022Z,45.00
2023-02-26T13:49:16.149Z,48.45
2023-02-26T13:51:49.755Z,46.08
2023-02-26T13:54:17.498Z,46.15
2023-02-26T13:57:06.709Z,35.20
2023-02-26T13:59:44.345Z,39.42
2023-02-26T14:02:20.439Z,36.33
2023-02-26T14:05:28.497Z,35.22
2023-02-26T14:08:01.031Z,41.55
2023-02-26T14:10:44.229Z,40.92
2023-02-26T14:13:18.929Z,42.63
2023-02-26T14:16:13.733Z,45.92
2023-02-26T14:18:40.802Z,44.03
2023-02-26T14:21:48.782Z,41.83
2023-02-26T14:24:37.893Z,51.65
2023-02-26T14:27:13.010Z,45.42
2023-02-26T14:29:44.277Z,44.20
2023-02-26T14:32:11.396Z,46.25
2023-02-26T14:34:51.716Z,37.67
2023-02-26T14:37:24.598Z,32.08
2023-02-26T14:40:13.991Z,37.33
2023-02-26T14:43:03.849Z,34.08
2023-02-26T14:45:38.914Z,35.08
2023-02-26T14:48:13.428Z,33.00
2023-02-26T14:51:02.705Z,34.38
2023-02-26T14:53:51.911Z,37.47
2023-02-26T14:56:34.195Z,35.35
2023-02-26T14:59:16.006Z,31.10
2023-02-26T15:02:00.864Z,34.90
2023-02-26T15:04:39.978Z,34.60
2023-02-26T15:07:32.945Z,33.35
2023-02-26T15:10:16.303Z,36.80
2023-02-26T15:13:21.946Z,32.55
2023-02-26T15:16:06.770Z,32.70
2023-02-26T15:18:36.773Z,32.42
2023-02-26T15:21:11.060Z,29.30
2023-02-26T15:23:59.833Z,32.97
2023-02-26T15:26:29.474Z,35.67
2023-02-26T15:28:58.771Z,32.88
2023-02-26T15:31:33.802Z,32.03
2023-02-26T15:34:01.758Z,36.88
2023-02-26T15:36:31.238Z,32.20
2023-02-26T15:39:01.192Z,35.15
2023-02-26T15:41:31.180Z,36.28
2023-02-26T15:44:03.791Z,33.95
2023-02-26T15:46:35.096Z,27.17
2023-02-26T15:49:12.134Z,32.30
2023-02-26T15:51:40.470Z,29.50
2023-02-26T15:54:07.699Z,26.70
2023-02-26T15:56:37.909Z,35.95
2023-02-26T15:59:10.402Z,31.23
2023-02-26T16:01:40.106Z,34.28
2023-02-26T16:04:13.187Z,32.10
2023-02-26T16:06:43.572Z,33.95
2023-02-26T16:09:19.168Z,35.85
2023-02-26T16:11:48.446Z,36.25
2023-02-26T16:14:24.224Z,30.52
2023-02-26T16:16:54.265Z,32.15
2023-02-26T16:19:33.171Z,40.13
2023-02-26T16:22:03.801Z,32.42
2023-02-26T16:24:32.540Z,32.10
2023-02-26T16:27:05.102Z,26.95
2023-02-26T16:29:34.342Z,26.88
2023-02-26T16:32:03.809Z,26.08
2023-02-26T16:34:40.535Z,33.05
2023-02-26T16:37:34.132Z,42.25
2023-02-26T16:40:25.511Z,30.67
2023-02-26T16:43:02.408Z,28.65
2023-02-26T16:45:38.599Z,26.85
2023-02-26T16:48:24.005Z,26.52
2023-02-26T16:50:59.001Z,28.27
2023-02-26T16:53:35.362Z,28.00
2023-02-26T16:56:03.790Z,29.80
2023-02-26T16:58:32.349Z,33.10
2023-02-26T17:01:14.463Z,36.30
2023-02-26T17:03:44.275Z,33.60
2023-02-26T17:06:16.647Z,34.42
2023-02-26T17:08:49.874Z,30.30
2023-02-26T17:11:28.565Z,35.58
2023-02-26T17:14:24.228Z,37.03
2023-02-26T17:16:52.070Z,32.88
2023-02-26T17:19:20.012Z,32.85
2023-02-26T17:21:54.509Z,38.78
2023-02-26T17:24:35.834Z,46.10
2023-02-26T17:27:05.192Z,45.17
2023-02-26T17:29:37.485Z,41.65
2023-02-26T17:32:16.750Z,43.63
2023-02-26T17:34:45.161Z,45.63
2023-02-26T17:37:13.514Z,42.28
2023-02-26T17:39:41.127Z,40.72
2023-02-26T17:42:19.462Z,41.75
2023-02-26T17:44:46.546Z,49.20
2023-02-26T17:47:22.434Z,117.72
2023-02-26T17:49:51.169Z,56.40
2023-02-26T17:52:18.495Z,44.72
2023-02-26T17:54:45.818Z,50.78
2023-02-26T17:57:19.736Z,48.85
2023-02-26T17:59:56.012Z,46.53
2023-02-26T18:02:32.525Z,51.05
2023-02-26T18:05:00.139Z,47.13
2023-02-26T18:07:36.231Z,50.83
2023-02-26T18:10:16.701Z,54.90
2023-02-26T18:12:53.843Z,59.80
2023-02-26T18:15:31.306Z,49.80
2023-02-26T18:18:05.423Z,49.47
2023-02-26T18:20:41.133Z,49.70
2023-02-26T18:23:16.034Z,54.10
2023-02-26T18:25:56.340Z,53.30
2023-02-26T18:28:33.023Z,56.00
2023-02-26T18:31:13.760Z,47.78
2023-02-26T18:33:44.638Z,47.42
2023-02-26T18:36:29.935Z,49.15
2023-02-26T18:39:02.330Z,39.33
2023-02-26T18:41:31.065Z,26.63
2023-02-26T18:43:58.217Z,30.05
2023-02-26T18:46:27.256Z,27.40
2023-02-26T18:48:54.676Z,26.23
2023-02-26T18:51:25.542Z,27.15
2023-02-26T18:53:53.153Z,37.20
2023-02-26T18:56:20.157Z,27.67
2023-02-26T18:58:47.929Z,47.83
2023-02-26T19:01:15.242Z,46.15
2023-02-26T19:03:42.419Z,50.35
2023-02-26T19:06:11.122Z,52.15
2023-02-26T19:08:38.522Z,52.75
2023-02-26T19:11:05.756Z,41.70
2023-02-26T19:13:32.877Z,34.63
2023-02-26T19:16:00.011Z,29.65
2023-02-26T19:18:27.265Z,31.13
2023-02-26T19:20:54.752Z,21.65
2023-02-26T19:23:22.249Z,32.17
2023-02-26T19:25:52.004Z,30.00
2023-02-26T19:28:19.951Z,32.03
2023-02-26T19:30:47.218Z,30.80
2023-02-26T19:33:14.808Z,25.65
2023-02-26T19:35:42.189Z,27.35
2023-02-26T19:38:10.402Z,27.10
2023-02-26T19:40:38.281Z,26.65
2023-02-26T19:43:05.381Z,21.70
2023-02-26T19:45:32.682Z,20.73
2023-02-26T19:48:01.044Z,23.67
2023-02-26T19:50:28.515Z,24.08
2023-02-26T19:52:56.242Z,24.40
2023-02-26T19:55:23.259Z,29.52
2023-02-26T19:57:50.285Z,25.38
2023-02-26T20:00:17.566Z,23.50
2023-02-26T20:02:44.801Z,27.30
2023-02-26T20:05:17.140Z,33.72
2023-02-26T20:07:47.294Z,35.25
2023-02-26T20:10:16.009Z,33.92
2023-02-26T20:12:44.828Z,40.65
2023-02-26T20:15:12.697Z,33.08
2023-02-26T20:17:40.121Z,38.42
2023-02-26T20:20:08.518Z,39.33
2023-02-26T20:22:36.455Z,37.15
2023-02-26T20:25:05.141Z,32.50
2023-02-26T20:27:32.975Z,29.42
2023-02-26T20:30:00.182Z,29.58
2023-02-26T20:32:27.443Z,25.75
2023-02-26T20:34:54.614Z,32.55
2023-02-26T20:37:21.812Z,29.63
2023-02-26T20:39:49.179Z,29.40
2023-02-26T20:42:17.162Z,28.92
2023-02-26T20:44:44.353Z,31.88
2023-02-26T20:47:11.429Z,104.65
2023-02-26T20:49:39.881Z,42.67
2023-02-26T20:52:06.969Z,32.10
2023-02-26T20:54:34.097Z,35.42
2023-02-26T20:57:01.353Z,31.70
2023-02-26T20:59:28.486Z,30.55
2023-02-26T21:01:57.321Z,39.08
2023-02-26T21:04:24.454Z,37.78
2023-02-26T21:06:51.677Z,32.65
2023-02-26T21:09:18.743Z,30.38
2023-02-26T21:11:45.972Z,28.63
2023-02-26T21:14:13.054Z,34.38
2023-02-26T21:16:41.609Z,31.08
2023-02-26T21:19:09.233Z,34.22
2023-02-26T21:21:36.433Z,33.60
2023-02-26T21:24:03.772Z,36.78
2023-02-26T21:26:30.896Z,37.58
2023-02-26T21:29:00.165Z,44.53
2023-02-26T21:31:27.601Z,49.08
2023-02-26T21:33:54.929Z,50.40
2023-02-26T21:36:22.764Z,50.05
2023-02-26T21:38:49.811Z,53.97
2023-02-26T21:41:16.984Z,52.20
2023-02-26T21:43:44.139Z,58.85
2023-02-26T21:46:11.464Z,60.72
2023-02-26T21:48:38.616Z,60.67
2023-02-26T21:51:06.047Z,56.40
2023-02-26T21:53:39.544Z,58.28
2023-02-26T21:56:06.746Z,62.55
2023-02-26T21:58:33.841Z,65.80
2023-02-26T22:01:01.086Z,58.38
2023-02-26T22:03:28.175Z,51.10
2023-02-26T22:05:55.198Z,45.92
2023-02-26T22:08:22.530Z,49.95
2023-02-26T22:10:49.784Z,42.10
2023-02-26T22:13:16.992Z,40.63
2023-02-26T22:15:43.987Z,41.72
2023-02-26T22:18:11.086Z,46.63
2023-02-26T22:20:38.306Z,38.42
2023-02-26T22:23:05.804Z,38.55
2023-02-26T22:25:32.998Z,35.17
2023-02-26T22:28:00.123Z,33.17
2023-02-26T22:30:27.181Z,38.90
2023-02-26T22:32:54.356Z,34.58
2023-02-26T22:35:21.453Z,35.55
2023-02-26T22:37:48.507Z,33.30
2023-02-26T22:40:15.755Z,33.65
2023-02-26T22:42:44.177Z,32.85
2023-02-26T22:45:13.587Z,30.98
2023-02-26T22:47:40.877Z,29.13
2023-02-26T22:50:08.427Z,27.85
2023-02-26T22:52:35.602Z,30.70
2023-02-26T22:55:02.791Z,29.27
2023-02-26T22:57:29.811Z,29.05
2023-02-26T22:59:58.160Z,28.15
2023-02-26T23:02:25.716Z,27.15
2023-02-26T23:04:52.880Z,30.50
2023-02-26T23:07:19.952Z,29.80
2023-02-26T23:09:47.072Z,30.50
2023-02-26T23:12:14.304Z,30.27
2023-02-26T23:14:41.514Z,30.33
2023-02-26T23:17:11.311Z,29.95
2023-02-26T23:19:38.704Z,32.40
2023-02-26T23:22:06.437Z,32.95
2023-02-26T23:24:33.659Z,36.72
2023-02-26T23:27:00.783Z,30.38
2023-02-26T23:29:27.853Z,34.13
2023-02-26T23:31:55.230Z,30.60
2023-02-26T23:34:22.451Z,34.28
2023-02-26T23:36:49.478Z,31.90
2023-02-26T23:39:16.532Z,28.02
2023-02-26T23:41:43.686Z,26.50
2023-02-26T23:44:10.691Z,22.05
2023-02-26T23:46:37.862Z,20.83
2023-02-26T23:49:05.093Z,16.67
2023-02-26T23:51:32.785Z,17.02
2023-02-26T23:53:59.871Z,16.05
2023-02-26T23:56:26.983Z,19.38
2023-02-26T23:58:53.983Z,17.85
